createdAt,value
2018-10-16T00:04:31.746Z,101634.91
2018-10-16T00:07:10.199Z,101634.06
2018-10-16T00:09:47.356Z,101646.89
2018-10-16T00:12:25.590Z,101653.53
2018-10-16T00:15:03.759Z,101654.41
2018-10-16T00:17:37.938Z,101646.96
2018-10-16T00:20:12.272Z,101648.29
2018-10-16T00:22:47.445Z,101656.24
2018-10-16T00:25:21.851Z,101656.67
2018-10-16T00:27:51.270Z,101655.80
2018-10-16T00:30:20.590Z,101660.23
2018-10-16T00:32:49.920Z,101658.03
2018-10-16T00:35:19.270Z,101660.25
2018-10-16T00:37:48.637Z,101658.92
2018-10-16T00:40:17.942Z,101660.25
2018-10-16T00:42:47.244Z,101659.39
2018-10-16T00:45:16.574Z,101668.71
2018-10-16T00:47:45.886Z,101666.94
2018-10-16T00:50:15.215Z,101679.33
2018-10-16T00:52:44.523Z,101681.06
2018-10-16T00:55:13.854Z,101681.11
2018-10-16T00:57:43.177Z,101684.64
2018-10-16T01:00:13.419Z,101690.39
2018-10-16T01:02:43.654Z,101687.75
2018-10-16T01:05:13.701Z,101677.61
2018-10-16T01:07:43.458Z,101685.16
2018-10-16T01:10:13.647Z,101684.71
2018-10-16T01:12:42.948Z,101689.14
2018-10-16T01:15:12.866Z,101686.95
2018-10-16T01:17:42.218Z,101688.28
2018-10-16T01:20:13.198Z,101693.18
2018-10-16T01:22:42.984Z,101689.64
2018-10-16T01:25:13.137Z,101687.45
2018-10-16T01:27:42.495Z,101687.41
2018-10-16T01:30:11.819Z,101687.00
2018-10-16T01:32:41.141Z,101683.54
2018-10-16T01:35:11.615Z,101692.41
2018-10-16T01:37:41.264Z,101693.80
2018-10-16T01:40:11.489Z,101685.45
2018-10-16T01:42:40.819Z,101687.23
2018-10-16T01:45:10.867Z,101683.73
2018-10-16T01:47:40.202Z,101687.30
2018-10-16T01:50:15.333Z,101689.08
2018-10-16T01:52:44.651Z,101691.28
2018-10-16T01:55:13.980Z,101688.63
2018-10-16T01:57:43.312Z,101694.80
2018-10-16T02:00:12.634Z,101690.86
2018-10-16T02:02:42.032Z,101702.78
2018-10-16T02:05:11.332Z,101690.00
2018-10-16T02:07:40.700Z,101690.47
2018-10-16T02:10:10.385Z,101686.05
2018-10-16T02:12:40.025Z,101691.34
2018-10-16T02:15:10.067Z,101696.64
2018-10-16T02:17:40.336Z,101687.87
2018-10-16T02:20:10.296Z,101691.39
2018-10-16T02:22:40.315Z,101689.66
2018-10-16T02:25:10.766Z,101698.02
2018-10-16T02:27:40.991Z,101698.02
2018-10-16T02:30:10.964Z,101698.47
2018-10-16T02:32:40.299Z,101705.95
2018-10-16T02:35:10.629Z,101697.14
2018-10-16T02:37:40.003Z,101695.37
2018-10-16T02:40:10.326Z,101699.79
2018-10-16T02:42:40.356Z,101701.08
2018-10-16T02:45:10.974Z,101707.24
2018-10-16T02:47:40.568Z,101705.04
2018-10-16T02:50:10.809Z,101710.75
2018-10-16T02:52:40.271Z,101709.42
2018-10-16T02:55:10.451Z,101715.17
2018-10-16T02:57:39.965Z,101714.27
2018-10-16T03:00:09.431Z,101711.20
2018-10-16T03:02:38.746Z,101714.27
2018-10-16T03:05:08.059Z,101711.66
2018-10-16T03:07:37.394Z,101718.28
2018-10-16T03:10:06.719Z,101715.23
2018-10-16T03:12:36.148Z,101717.84
2018-10-16T03:15:09.045Z,101717.02
2018-10-16T03:17:38.494Z,101717.94
2018-10-16T03:20:08.297Z,101719.73
2018-10-16T03:22:38.179Z,101727.27
2018-10-16T03:25:09.499Z,101726.45
2018-10-16T03:30:17.318Z,101721.66
2018-10-16T03:32:46.625Z,101723.91
2018-10-16T03:35:15.943Z,101729.70
2018-10-16T03:37:45.253Z,101728.89
2018-10-16T03:40:14.653Z,101740.81
2018-10-16T03:42:43.998Z,101741.77
2018-10-16T03:45:13.750Z,101738.29
2018-10-16T03:47:43.227Z,101738.33
2018-10-16T03:50:12.447Z,101739.70
2018-10-16T03:52:41.770Z,101736.64
2018-10-16T03:55:11.118Z,101745.49
2018-10-16T03:57:40.666Z,101747.23
2018-10-16T04:00:11.191Z,101750.38
2018-10-16T04:02:40.558Z,101743.41
2018-10-16T04:05:10.005Z,101749.61
2018-10-16T04:07:39.775Z,101748.36
2018-10-16T04:10:09.563Z,101743.09
2018-10-16T04:12:38.916Z,101753.70
2018-10-16T04:15:09.645Z,101752.87
2018-10-16T04:17:39.707Z,101750.28
2018-10-16T04:20:09.041Z,101754.27
2018-10-16T04:22:38.791Z,101754.30
2018-10-16T04:25:09.294Z,101744.22
2018-10-16T04:27:38.631Z,101758.73
2018-10-16T04:30:08.487Z,101757.02
2018-10-16T04:32:37.790Z,101762.30
2018-10-16T04:35:16.874Z,101764.52
2018-10-16T04:37:47.114Z,101761.47
2018-10-16T04:40:16.434Z,101762.81
2018-10-16T04:42:45.770Z,101765.90
2018-10-16T04:45:15.092Z,101758.86
2018-10-16T04:47:44.438Z,101762.41
2018-10-16T04:50:13.768Z,101760.62
2018-10-16T04:52:43.100Z,101766.34
2018-10-16T04:55:12.490Z,101772.07
2018-10-16T04:57:41.797Z,101776.48
2018-10-16T05:00:11.119Z,101771.19
2018-10-16T05:02:41.495Z,101774.70
2018-10-16T05:05:22.202Z,101769.43
2018-10-16T05:07:52.146Z,101768.53
2018-10-16T05:10:22.006Z,101768.09
2018-10-16T05:12:51.577Z,101765.05
2018-10-16T05:15:26.755Z,101768.53
2018-10-16T05:17:56.328Z,101780.42
2018-10-16T05:20:25.799Z,101778.23
2018-10-16T05:22:55.738Z,101781.32
2018-10-16T05:25:26.085Z,101782.22
2018-10-16T05:27:55.734Z,101780.87
2018-10-16T05:30:25.294Z,101775.58
2018-10-16T05:32:54.653Z,101777.33
2018-10-16T05:35:23.990Z,101777.33
2018-10-16T05:37:53.314Z,101783.95
2018-10-16T05:40:22.636Z,101783.50
2018-10-16T05:42:51.954Z,101793.17
2018-10-16T05:45:21.307Z,101786.14
2018-10-16T05:47:50.657Z,101794.05
2018-10-16T05:50:19.983Z,101769.86
2018-10-16T05:52:49.324Z,101800.21
2018-10-16T05:55:18.651Z,101804.19
2018-10-16T05:57:48.008Z,101803.73
2018-10-16T06:00:34.172Z,101811.21
2018-10-16T06:03:03.617Z,101805.93
2018-10-16T06:05:32.953Z,101808.91
2018-10-16T06:08:02.535Z,101808.03
2018-10-16T06:10:31.857Z,101806.30
2018-10-16T06:13:01.325Z,101813.34
2018-10-16T06:15:30.647Z,101823.02
2018-10-16T06:17:59.951Z,101819.89
2018-10-16T06:20:29.275Z,101825.61
2018-10-16T06:22:58.577Z,101824.29
2018-10-16T06:25:27.891Z,101828.68
2018-10-16T06:27:57.215Z,101827.78
2018-10-16T06:30:26.604Z,101830.43
2018-10-16T06:32:55.867Z,101831.75
2018-10-16T06:35:25.186Z,101840.11
2018-10-16T06:37:54.502Z,101839.66
2018-10-16T06:40:23.856Z,101846.70
2018-10-16T06:42:53.146Z,101850.21
2018-10-16T06:45:22.524Z,101854.63
2018-10-16T06:47:51.966Z,101862.12
2018-10-16T06:50:21.193Z,101854.60
2018-10-16T06:52:50.542Z,101858.16
2018-10-16T06:55:19.894Z,101850.64
2018-10-16T06:57:49.167Z,101855.92
2018-10-16T07:00:18.549Z,101855.05
2018-10-16T07:02:47.839Z,101858.13
2018-10-16T07:05:17.154Z,101860.77
2018-10-16T07:07:46.486Z,101865.16
2018-10-16T07:10:15.837Z,101864.71
2018-10-16T07:12:45.157Z,101868.20
2018-10-16T07:15:14.471Z,101867.31
2018-10-16T07:17:43.804Z,101868.58
2018-10-16T07:20:13.474Z,101873.84
2018-10-16T07:22:42.829Z,101867.23
2018-10-16T07:25:12.155Z,101872.00
2018-10-16T07:27:41.481Z,101875.49
2018-10-16T07:30:13.941Z,101878.11
2018-10-16T07:32:43.218Z,101878.91
2018-10-16T07:35:12.539Z,101877.96
2018-10-16T07:37:41.985Z,101878.75
2018-10-16T07:40:12.066Z,101874.73
2018-10-16T07:42:41.686Z,101870.69
2018-10-16T07:45:11.057Z,101878.13
2018-10-16T07:47:40.393Z,101876.30
2018-10-16T07:50:11.687Z,101884.16
2018-10-16T07:52:41.096Z,101888.04
2018-10-16T07:55:12.581Z,101889.72
2018-10-16T07:57:42.002Z,101890.05
2018-10-16T08:00:12.608Z,101883.73
2018-10-16T08:02:42.978Z,101897.73
2018-10-16T08:05:12.796Z,101896.30
2018-10-16T08:07:42.389Z,101902.81
2018-10-16T08:10:13.318Z,101903.61
2018-10-16T08:12:43.314Z,101901.30
2018-10-16T08:15:12.796Z,101903.89
2018-10-16T08:17:42.309Z,101900.66
2018-10-16T08:20:11.639Z,101898.80
2018-10-16T08:22:41.018Z,101900.02
2018-10-16T08:25:10.340Z,101900.81
2018-10-16T08:27:39.670Z,101900.81
2018-10-16T08:30:09.903Z,101900.40
2018-10-16T08:32:39.243Z,101903.52
2018-10-16T08:35:08.599Z,101904.84
2018-10-16T08:39:50.151Z,101907.04
2018-10-16T08:43:39.669Z,101910.29
2018-10-16T08:46:26.042Z,101910.74
2018-10-16T08:49:12.327Z,101912.55
2018-10-16T08:51:59.445Z,101911.21
2018-10-16T08:55:31.557Z,101907.19
2018-10-16T08:58:01.338Z,101921.78
2018-10-16T09:00:30.726Z,101921.25
2018-10-16T09:03:00.080Z,101921.63
2018-10-16T09:05:29.999Z,101920.23
2018-10-16T09:07:59.375Z,101922.36
2018-10-16T09:10:28.896Z,101918.89
2018-10-16T09:12:58.271Z,101916.16
2018-10-16T09:15:27.605Z,101918.33
2018-10-16T09:17:56.952Z,101924.48
2018-10-16T09:20:26.315Z,101915.98
2018-10-16T09:22:55.629Z,101921.14
2018-10-16T09:25:24.937Z,101915.66
2018-10-16T09:27:54.375Z,101929.20
2018-10-16T09:30:23.698Z,101926.28
2018-10-16T09:32:53.030Z,101918.34
2018-10-16T09:35:22.924Z,101926.30
2018-10-16T09:37:52.325Z,101925.83
2018-10-16T09:40:21.615Z,101922.95
2018-10-16T09:42:50.990Z,101925.41
2018-10-16T09:45:20.314Z,101931.02
2018-10-16T09:47:49.649Z,101927.25
2018-10-16T09:50:19.002Z,101932.72
2018-10-16T09:52:48.326Z,101931.95
2018-10-16T09:55:17.674Z,101937.95
2018-10-16T09:57:47.088Z,101935.06
2018-10-16T10:00:21.611Z,101946.38
2018-10-16T10:02:50.929Z,101931.09
2018-10-16T10:05:20.895Z,101931.91
2018-10-16T10:07:50.224Z,101929.67
2018-10-16T10:10:19.557Z,101931.91
2018-10-16T10:12:48.890Z,101932.02
2018-10-16T10:17:59.213Z,101934.48
2018-10-16T10:20:28.523Z,101929.27
2018-10-16T10:22:57.867Z,101933.49
2018-10-16T10:25:27.173Z,101934.15
2018-10-16T10:27:56.507Z,101934.81
2018-10-16T10:30:25.823Z,101935.77
2018-10-16T10:32:55.157Z,101937.88
2018-10-16T10:35:24.537Z,101929.77
2018-10-16T10:37:53.794Z,101934.48
2018-10-16T10:40:23.120Z,101930.77
2018-10-16T10:42:52.424Z,101926.22
2018-10-16T10:45:21.793Z,101926.08
2018-10-16T10:47:51.125Z,101924.25
2018-10-16T10:50:20.557Z,101923.62
2018-10-16T10:52:49.818Z,101924.25
2018-10-16T10:55:19.154Z,101917.89
2018-10-16T10:57:48.462Z,101923.97
2018-10-16T11:00:17.812Z,101920.72
2018-10-16T11:02:48.501Z,101918.86
2018-10-16T11:05:17.816Z,101920.47
2018-10-16T11:07:50.111Z,101921.24
2018-10-16T11:10:19.415Z,101920.05
2018-10-16T11:12:48.721Z,101918.13
2018-10-16T11:15:18.040Z,101917.96
2018-10-16T11:17:47.358Z,101916.02
2018-10-16T11:20:16.691Z,101909.66
2018-10-16T11:22:46.006Z,101910.61
2018-10-16T11:25:15.328Z,101913.34
2018-10-16T11:27:44.676Z,101913.46
2018-10-16T11:30:15.102Z,101910.00
2018-10-16T11:32:44.552Z,101906.23
2018-10-16T11:35:14.899Z,101910.86
2018-10-16T11:37:44.258Z,101906.70
2018-10-16T11:40:13.642Z,101902.67
2018-10-16T11:42:43.186Z,101908.23
2018-10-16T11:45:12.570Z,101904.42
2018-10-16T11:47:41.829Z,101902.73
2018-10-16T11:50:11.964Z,101899.62
2018-10-16T11:52:41.626Z,101903.12
2018-10-16T11:55:11.259Z,101903.95
2018-10-16T11:57:40.607Z,101903.81
2018-10-16T12:00:15.115Z,101905.51
2018-10-16T12:02:44.649Z,101910.43
2018-10-16T12:05:15.030Z,101903.69
2018-10-16T12:07:44.365Z,101909.36
2018-10-16T12:10:13.678Z,101903.33
2018-10-16T12:12:43.003Z,101905.28
2018-10-16T12:15:12.382Z,101899.78
2018-10-16T12:19:51.055Z,101907.95
2018-10-16T12:22:20.338Z,101898.08
2018-10-16T12:24:49.714Z,101897.67
2018-10-16T12:27:19.031Z,101889.64
2018-10-16T12:29:48.334Z,101892.78
2018-10-16T12:32:17.676Z,101892.20
2018-10-16T12:34:46.982Z,101892.86
2018-10-16T12:37:16.303Z,101884.81
2018-10-16T12:39:45.630Z,101881.71
2018-10-16T12:42:15.004Z,101879.80
2018-10-16T12:44:44.263Z,101884.13
2018-10-16T12:47:13.651Z,101882.09
2018-10-16T12:49:42.939Z,101882.20
2018-10-16T12:52:12.257Z,101884.25
2018-10-16T12:54:43.149Z,101887.34
2018-10-16T12:57:12.498Z,101883.33
2018-10-16T12:59:41.831Z,101881.73
2018-10-16T13:02:11.192Z,101879.17
2018-10-16T13:04:40.515Z,101869.50
2018-10-16T13:07:13.935Z,101872.08
2018-10-16T13:09:44.175Z,101877.34
2018-10-16T13:12:14.594Z,101876.05
2018-10-16T13:14:43.926Z,101875.48
2018-10-16T13:17:13.257Z,101874.80
2018-10-16T13:19:42.587Z,101871.45
2018-10-16T13:22:11.908Z,101876.41
2018-10-16T13:24:41.284Z,101874.37
2018-10-16T13:27:10.612Z,101878.11
2018-10-16T13:29:40.078Z,101866.53
2018-10-16T13:32:09.402Z,101865.88
2018-10-16T13:34:38.634Z,101870.58
2018-10-16T13:37:07.977Z,101867.00
2018-10-16T13:39:37.407Z,101872.46
2018-10-16T13:42:06.762Z,101867.43
2018-10-16T13:44:36.061Z,101875.24
2018-10-16T13:47:05.370Z,101864.93
2018-10-16T13:49:34.677Z,101871.95
2018-10-16T13:52:04.112Z,101867.87
2018-10-16T13:54:33.447Z,101873.34
2018-10-16T13:57:02.796Z,101867.34
2018-10-16T13:59:32.107Z,101877.87
2018-10-16T14:02:01.462Z,101873.52
2018-10-16T14:04:30.776Z,101881.47
2018-10-16T14:07:00.072Z,101878.83
2018-10-16T14:09:29.377Z,101879.22
2018-10-16T14:11:58.711Z,101873.59
2018-10-16T14:14:28.127Z,101879.03
2018-10-16T14:16:57.464Z,101873.87
2018-10-16T14:19:26.814Z,101876.80
2018-10-16T14:21:56.220Z,101874.83
2018-10-16T14:24:25.488Z,101876.73
2018-10-16T14:26:54.816Z,101876.73
2018-10-16T14:29:24.251Z,101877.34
2018-10-16T14:31:53.637Z,101876.12
2018-10-16T14:34:22.992Z,101875.41
2018-10-16T14:36:52.277Z,101874.21
2018-10-16T14:39:21.630Z,101873.22
2018-10-16T14:41:50.969Z,101873.24
2018-10-16T14:44:20.315Z,101874.05
2018-10-16T14:46:49.686Z,101868.98
2018-10-16T14:49:19.137Z,101867.09
2018-10-16T14:51:48.466Z,101870.02
2018-10-16T14:54:17.783Z,101868.23
2018-10-16T14:56:47.190Z,101871.23
2018-10-16T14:59:16.474Z,101868.52
2018-10-16T15:01:45.800Z,101863.19
2018-10-16T15:04:15.199Z,101868.88
2018-10-16T15:06:44.487Z,101866.36
2018-10-16T15:09:13.811Z,101864.59
2018-10-16T15:11:43.167Z,101872.09
2018-10-16T15:14:12.537Z,101865.16
2018-10-16T15:16:42.093Z,101862.52
2018-10-16T15:19:11.344Z,101869.30
2018-10-16T15:21:40.786Z,101869.27
2018-10-16T15:24:10.187Z,101868.70
2018-10-16T15:26:39.474Z,101872.98
2018-10-16T15:29:08.899Z,101869.70
2018-10-16T15:31:38.235Z,101879.44
2018-10-16T15:34:07.693Z,101876.15
2018-10-16T15:36:37.015Z,101883.98
2018-10-16T15:39:10.934Z,101885.08
2018-10-16T15:41:40.393Z,101885.94
2018-10-16T15:44:10.060Z,101883.20
2018-10-16T15:46:39.883Z,101886.66
2018-10-16T15:49:09.243Z,101887.42
2018-10-16T15:51:38.555Z,101890.44
2018-10-16T15:54:07.979Z,101883.72
2018-10-16T15:56:37.436Z,101894.08
2018-10-16T15:59:06.947Z,101899.16
2018-10-16T16:01:36.448Z,101897.80
2018-10-16T16:04:06.378Z,101904.08
2018-10-16T16:06:35.963Z,101908.59
2018-10-16T16:09:07.821Z,101907.97
2018-10-16T16:11:37.317Z,101901.83
2018-10-16T16:14:07.026Z,101906.94
2018-10-16T16:16:36.518Z,101909.88
2018-10-16T16:19:07.220Z,101907.87
2018-10-16T16:21:36.686Z,101908.62
2018-10-16T16:24:06.633Z,101906.67
2018-10-16T16:26:36.095Z,101911.35
2018-10-16T16:29:06.307Z,101908.05
2018-10-16T16:31:35.824Z,101912.30
2018-10-16T16:34:06.828Z,101917.79
2018-10-16T16:36:36.403Z,101911.75
2018-10-16T16:39:10.515Z,101915.45
2018-10-16T16:41:39.879Z,101921.44
2018-10-16T16:44:09.299Z,101918.02
2018-10-16T16:46:44.715Z,101920.87
2018-10-16T16:49:14.272Z,101920.48
2018-10-16T16:51:43.618Z,101922.23
2018-10-16T16:54:12.937Z,101920.91
2018-10-16T16:56:42.334Z,101937.70
2018-10-16T16:59:11.725Z,101930.52
2018-10-16T17:01:41.005Z,101932.56
2018-10-16T17:04:10.378Z,101940.03
2018-10-16T17:06:39.704Z,101935.03
2018-10-16T17:09:11.821Z,101927.36
2018-10-16T17:11:41.159Z,101938.22
2018-10-16T17:14:10.521Z,101934.92
2018-10-16T17:16:39.799Z,101934.27
2018-10-16T17:19:09.290Z,101933.97
2018-10-16T17:21:38.650Z,101931.52
2018-10-16T17:24:07.993Z,101932.56
2018-10-16T17:26:37.365Z,101934.93
2018-10-16T17:29:06.978Z,101939.02
2018-10-16T17:31:36.352Z,101937.33
2018-10-16T17:34:06.571Z,101939.19
2018-10-16T17:36:35.835Z,101941.91
2018-10-16T17:39:07.101Z,101946.43
2018-10-16T17:41:36.382Z,101888.52
2018-10-16T17:44:07.139Z,101942.22
2018-10-16T17:46:36.603Z,101942.73
2018-10-16T17:49:06.815Z,101946.85
2018-10-16T17:51:36.149Z,101945.63
2018-10-16T17:54:06.603Z,101935.52
2018-10-16T17:56:36.990Z,101939.13
2018-10-16T17:59:06.726Z,101932.54
2018-10-16T18:01:36.045Z,101933.48
2018-10-16T18:04:06.282Z,101927.38
2018-10-16T18:06:35.645Z,101935.38
2018-10-16T18:09:08.031Z,101935.92
2018-10-16T18:11:37.518Z,101932.01
2018-10-16T18:14:07.446Z,101935.66
2018-10-16T18:16:36.937Z,101937.95
2018-10-16T18:19:06.807Z,101944.25
2018-10-16T18:21:36.201Z,101941.22
2018-10-16T18:24:06.995Z,101939.56
2018-10-16T18:26:36.343Z,101939.58
2018-10-16T18:29:06.951Z,101938.53
2018-10-16T18:31:36.293Z,101953.16
2018-10-16T18:34:06.620Z,101944.33
2018-10-16T18:36:35.994Z,101945.72
2018-10-16T18:39:08.652Z,101949.73
2018-10-16T18:41:38.325Z,101949.84
2018-10-16T18:44:07.701Z,101956.57
2018-10-16T18:46:37.044Z,101957.11
2018-10-16T18:49:06.640Z,101960.31
2018-10-16T18:51:35.962Z,101957.78
2018-10-16T18:54:06.151Z,101958.36
2018-10-16T18:56:35.470Z,101955.37
2018-10-16T18:59:06.074Z,101943.09
2018-10-16T19:01:35.411Z,101949.41
2018-10-16T19:04:04.954Z,101948.15
2018-10-16T19:06:34.294Z,101946.46
2018-10-16T19:09:04.869Z,101943.45
2018-10-16T19:11:34.210Z,101945.74
2018-10-16T19:14:03.615Z,101943.55
2018-10-16T19:16:32.901Z,101944.97
2018-10-16T19:19:02.294Z,101946.34
2018-10-16T19:21:31.689Z,101942.83
2018-10-16T19:24:01.005Z,101953.44
2018-10-16T19:26:30.351Z,101950.83
2018-10-16T19:28:59.678Z,101950.45
2018-10-16T19:31:29.024Z,101960.64
2018-10-16T19:34:00.003Z,101955.84
2018-10-16T19:36:29.334Z,101953.69
2018-10-16T19:38:58.687Z,101958.11
2018-10-16T19:41:27.978Z,101953.75
2018-10-16T19:43:57.442Z,101958.63
2018-10-16T19:46:26.774Z,101955.15
2018-10-16T19:48:56.201Z,101957.38
2018-10-16T19:51:32.980Z,101950.79
2018-10-16T19:54:02.569Z,101952.14
2018-10-16T19:56:32.102Z,101953.05
2018-10-16T19:59:01.594Z,101959.25
2018-10-16T20:01:31.907Z,101958.83
2018-10-16T20:04:01.362Z,101958.38
2018-10-16T20:06:30.869Z,101966.28
2018-10-16T20:09:09.521Z,101960.99
2018-10-16T20:11:38.953Z,101967.19
2018-10-16T20:14:08.545Z,101965.00
2018-10-16T20:16:37.959Z,101954.83
2018-10-16T20:19:07.751Z,101957.34
2018-10-16T20:21:37.287Z,101952.50
2018-10-16T20:24:07.128Z,101952.53
2018-10-16T20:26:38.073Z,101956.50
2018-10-16T20:29:07.669Z,101962.70
2018-10-16T20:34:09.301Z,101953.05
2018-10-16T20:36:39.004Z,101950.02
2018-10-16T20:39:12.603Z,101955.34
2018-10-16T20:41:42.419Z,101946.09
2018-10-16T20:44:15.822Z,101950.97
2018-10-16T20:46:45.329Z,101943.02
2018-10-16T20:49:14.943Z,101935.11
2018-10-16T20:51:45.503Z,101939.95
2018-10-16T20:54:14.811Z,101938.21
2018-10-16T20:56:44.242Z,101935.56
2018-10-16T20:59:13.559Z,101934.23
2018-10-16T21:01:43.525Z,101935.11
2018-10-16T21:04:12.897Z,101930.27
2018-10-16T21:06:42.461Z,101926.75
2018-10-16T21:09:11.605Z,101922.80
2018-10-16T21:11:40.913Z,101925.88
2018-10-16T21:14:10.210Z,101928.52
2018-10-16T21:16:39.540Z,101934.23
2018-10-16T21:19:09.739Z,101932.06
2018-10-16T21:21:38.921Z,101935.58
2018-10-16T21:24:08.250Z,101929.86
2018-10-16T21:26:37.737Z,101930.31
2018-10-16T21:29:07.107Z,101927.66
2018-10-16T21:31:36.440Z,101922.37
2018-10-16T21:34:06.356Z,101924.14
2018-10-16T21:36:35.671Z,101924.59
2018-10-16T21:39:06.876Z,101918.00
2018-10-16T21:41:36.161Z,101911.41
2018-10-16T21:44:06.403Z,101918.02
2018-10-16T21:46:35.729Z,101914.95
2018-10-16T21:49:06.452Z,101918.05
2018-10-16T21:51:35.754Z,101913.20
2018-10-16T21:54:08.817Z,101916.30
2018-10-16T21:56:39.130Z,101912.33
2018-10-16T21:59:08.548Z,101911.00
2018-10-16T22:01:43.057Z,101905.72
2018-10-16T22:04:12.384Z,101903.97
2018-10-16T22:06:41.689Z,101902.65
2018-10-16T22:09:14.413Z,101902.17
2018-10-16T22:11:44.057Z,101899.52
2018-10-16T22:14:13.439Z,101903.95
2018-10-16T22:16:42.757Z,101896.43
2018-10-16T22:19:12.265Z,101897.73
2018-10-16T22:21:41.425Z,101898.19
2018-10-16T22:24:10.763Z,101896.38
2018-10-16T22:26:40.107Z,101890.64
2018-10-16T22:29:09.484Z,101894.61
2018-10-16T22:31:38.824Z,101896.39
2018-10-16T22:34:08.148Z,101899.03
2018-10-16T22:36:37.449Z,101896.39
2018-10-16T22:39:09.565Z,101897.26
2018-10-16T22:41:39.097Z,101870.84
2018-10-16T22:44:09.048Z,101884.48
2018-10-16T22:46:38.377Z,101885.34
2018-10-16T22:49:07.825Z,101887.58
2018-10-16T22:51:37.084Z,101889.34
2018-10-16T22:54:06.590Z,101892.86
2018-10-16T22:56:35.897Z,101890.22
2018-10-16T22:59:06.232Z,101892.41
2018-10-16T23:01:42.641Z,101894.19
2018-10-16T23:04:19.562Z,101888.89
2018-10-16T23:06:57.024Z,101888.02
2018-10-16T23:09:34.373Z,101888.47
2018-10-16T23:12:12.737Z,101891.57
2018-10-16T23:14:47.958Z,101892.44
2018-10-16T23:17:23.439Z,101889.27
2018-10-16T23:20:00.462Z,101897.66
2018-10-16T23:22:37.596Z,101895.91
2018-10-16T23:25:16.907Z,101897.23
2018-10-16T23:27:50.754Z,101898.59
2018-10-16T23:30:27.501Z,101893.73
2018-10-16T23:33:04.500Z,101888.89
2018-10-16T23:35:38.664Z,101896.86
2018-10-16T23:38:09.308Z,101894.66
2018-10-16T23:40:47.053Z,101895.98
2018-10-16T23:43:24.893Z,101894.23
2018-10-16T23:46:01.192Z,101897.78
2018-10-16T23:48:38.549Z,101891.17
2018-10-16T23:51:15.849Z,101887.20
2018-10-16T23:53:54.086Z,101888.09
2018-10-16T23:56:37.307Z,101885.00
2018-10-16T23:59:14.232Z,101884.13
